createdAt,value
2022-10-13T00:01:13.473Z,10.25
2022-10-13T00:03:46.104Z,7.38
2022-10-13T00:06:15.249Z,10.00
2022-10-13T00:08:42.785Z,6.40
2022-10-13T00:11:12.939Z,8.40
2022-10-13T00:13:40.529Z,7.97
2022-10-13T00:16:08.789Z,8.20
2022-10-13T00:18:35.688Z,7.57
2022-10-13T00:21:08.476Z,10.10
2022-10-13T00:23:35.458Z,7.20
2022-10-13T00:26:05.138Z,7.75
2022-10-13T00:28:32.143Z,7.07
2022-10-13T00:30:59.346Z,6.72
2022-10-13T00:33:26.556Z,7.80
2022-10-13T00:35:53.491Z,5.68
2022-10-13T00:38:23.363Z,7.03
2022-10-13T00:40:52.627Z,9.40
2022-10-13T00:43:22.607Z,6.97
2022-10-13T00:45:50.816Z,8.15
2022-10-13T00:48:22.661Z,8.68
2022-10-13T00:50:49.875Z,10.25
2022-10-13T00:53:18.871Z,7.95
2022-10-13T00:55:47.223Z,7.18
2022-10-13T00:58:17.385Z,8.38
2022-10-13T01:00:47.519Z,8.63
2022-10-13T01:03:15.164Z,8.10
2022-10-13T01:05:42.859Z,9.80
2022-10-13T01:08:12.236Z,8.73
2022-10-13T01:10:58.084Z,8.30
2022-10-13T01:14:19.242Z,7.82
2022-10-13T01:17:06.151Z,7.32
2022-10-13T01:19:51.761Z,9.90
2022-10-13T01:22:39.806Z,9.70
2022-10-13T01:25:15.961Z,9.93
2022-10-13T01:28:01.395Z,12.35
2022-10-13T01:30:30.934Z,12.32
2022-10-13T01:33:06.688Z,11.73
2022-10-13T01:36:06.894Z,9.77
2022-10-13T01:38:40.324Z,12.32
2022-10-13T01:41:28.772Z,12.48
2022-10-13T01:44:05.598Z,12.25
2022-10-13T01:46:35.643Z,10.52
2022-10-13T01:51:32.630Z,11.43
2022-10-13T01:53:59.827Z,13.32
2022-10-13T01:56:26.705Z,14.60
2022-10-13T01:58:56.707Z,10.63
2022-10-13T02:01:42.364Z,10.57
2022-10-13T02:04:23.182Z,13.23
2022-10-13T02:07:08.001Z,13.25
2022-10-13T02:09:58.388Z,12.10
2022-10-13T02:12:34.733Z,12.00
2022-10-13T02:17:31.734Z,10.25
2022-10-13T02:19:59.424Z,13.25
2022-10-13T02:22:31.862Z,11.02
2022-10-13T02:24:59.933Z,13.43
2022-10-13T02:27:27.641Z,10.38
2022-10-13T02:29:57.387Z,11.05
2022-10-13T02:32:24.293Z,11.32
2022-10-13T02:34:51.118Z,10.85
2022-10-13T02:37:18.567Z,12.52
2022-10-13T02:39:45.376Z,12.27
2022-10-13T02:42:12.352Z,12.38
2022-10-13T02:44:40.297Z,10.95
2022-10-13T02:47:07.192Z,10.45
2022-10-13T02:49:34.020Z,9.60
2022-10-13T02:52:00.835Z,12.20
2022-10-13T02:54:28.332Z,10.15
2022-10-13T02:56:55.127Z,11.88
2022-10-13T02:59:21.971Z,12.55
2022-10-13T03:01:51.205Z,12.38
2022-10-13T03:04:18.039Z,14.25
2022-10-13T03:06:44.953Z,11.38
2022-10-13T03:09:12.236Z,12.70
2022-10-13T03:11:39.646Z,11.82
2022-10-13T03:14:06.537Z,9.88
2022-10-13T03:16:33.363Z,13.38
2022-10-13T03:19:00.217Z,10.98
2022-10-13T03:21:27.224Z,12.43
2022-10-13T03:23:54.146Z,10.95
2022-10-13T03:26:20.964Z,11.20
2022-10-13T03:28:51.619Z,11.77
2022-10-13T03:31:18.972Z,8.95
2022-10-13T03:33:45.944Z,10.90
2022-10-13T03:36:16.345Z,9.23
2022-10-13T03:38:44.417Z,11.10
2022-10-13T03:41:16.804Z,10.38
2022-10-13T03:43:44.941Z,9.93
2022-10-13T03:46:15.799Z,8.13
2022-10-13T03:48:43.025Z,9.93
2022-10-13T03:51:12.902Z,13.77
2022-10-13T03:53:39.797Z,9.52
2022-10-13T03:56:07.875Z,11.20
2022-10-13T03:58:35.200Z,9.52
2022-10-13T04:01:05.695Z,10.05
2022-10-13T04:03:34.731Z,11.70
2022-10-13T04:06:03.931Z,8.35
2022-10-13T04:08:31.711Z,10.05
2022-10-13T04:11:04.362Z,8.75
2022-10-13T04:13:31.923Z,8.98
2022-10-13T04:16:08.507Z,9.45
2022-10-13T04:18:35.830Z,12.30
2022-10-13T04:21:08.593Z,8.90
2022-10-13T04:23:36.224Z,9.52
2022-10-13T04:26:04.786Z,9.98
2022-10-13T04:28:36.093Z,10.40
2022-10-13T04:31:03.492Z,9.95
2022-10-13T04:33:30.687Z,10.95
2022-10-13T04:35:57.575Z,9.57
2022-10-13T04:38:25.784Z,9.77
2022-10-13T04:40:52.565Z,10.63
2022-10-13T04:43:19.955Z,8.55
2022-10-13T04:45:46.664Z,8.43
2022-10-13T04:48:14.620Z,9.13
2022-10-13T04:50:41.526Z,7.35
2022-10-13T04:53:08.522Z,7.82
2022-10-13T04:55:36.440Z,9.63
2022-10-13T04:58:03.552Z,7.88
2022-10-13T05:00:31.802Z,8.88
2022-10-13T05:02:59.089Z,9.93
2022-10-13T05:05:25.908Z,8.63
2022-10-13T05:07:52.964Z,9.85
2022-10-13T05:10:20.187Z,8.77
2022-10-13T05:12:47.062Z,8.63
2022-10-13T05:15:13.879Z,10.32
2022-10-13T05:17:40.668Z,7.95
2022-10-13T05:20:08.108Z,11.82
2022-10-13T05:22:34.888Z,9.02
2022-10-13T05:25:01.801Z,9.18
2022-10-13T05:27:29.378Z,9.10
2022-10-13T05:29:56.226Z,6.53
2022-10-13T05:32:23.215Z,10.07
2022-10-13T05:34:50.210Z,10.23
2022-10-13T05:37:18.278Z,10.30
2022-10-13T05:39:48.766Z,9.15
2022-10-13T05:42:15.845Z,11.77
2022-10-13T05:44:42.923Z,9.50
2022-10-13T05:47:09.782Z,10.45
2022-10-13T05:49:39.892Z,8.73
2022-10-13T05:54:53.032Z,10.00
2022-10-13T05:57:27.633Z,8.75
2022-10-13T06:00:21.277Z,7.68
2022-10-13T06:02:50.223Z,8.35
2022-10-13T06:05:20.187Z,7.22
2022-10-13T06:10:15.797Z,8.52
2022-10-13T06:12:42.742Z,8.55
2022-10-13T06:15:10.233Z,9.18
2022-10-13T06:17:38.578Z,9.90
2022-10-13T06:20:06.926Z,7.72
2022-10-13T06:22:35.426Z,6.18
2022-10-13T06:25:03.739Z,10.52
2022-10-13T06:27:31.614Z,10.25
2022-10-13T06:29:58.707Z,9.15
2022-10-13T06:32:27.379Z,11.63
2022-10-13T06:34:54.842Z,14.52
2022-10-13T06:37:26.950Z,11.63
2022-10-13T06:39:54.312Z,8.52
2022-10-13T06:42:22.035Z,10.25
2022-10-13T06:44:49.429Z,9.13
2022-10-13T06:47:17.810Z,9.93
2022-10-13T06:49:44.667Z,8.68
2022-10-13T06:52:11.602Z,9.80
2022-10-13T06:54:38.846Z,8.82
2022-10-13T06:57:06.487Z,9.68
2022-10-13T06:59:33.764Z,9.43
2022-10-13T07:02:01.333Z,8.45
2022-10-13T07:04:29.509Z,10.63
2022-10-13T07:06:56.414Z,12.05
2022-10-13T07:09:24.422Z,10.50
2022-10-13T07:11:52.108Z,11.13
2022-10-13T07:14:18.973Z,11.45
2022-10-13T07:16:48.322Z,8.85
2022-10-13T07:19:15.189Z,9.43
2022-10-13T07:21:42.154Z,11.57
2022-10-13T07:24:11.162Z,8.55
2022-10-13T07:26:37.836Z,9.70
2022-10-13T07:29:04.787Z,10.43
2022-10-13T07:31:32.083Z,9.50
2022-10-13T07:34:00.064Z,10.70
2022-10-13T07:36:27.641Z,9.95
2022-10-13T07:38:54.585Z,9.00
2022-10-13T07:41:21.529Z,7.25
2022-10-13T07:43:49.166Z,7.10
2022-10-13T07:46:16.042Z,10.57
2022-10-13T07:48:42.989Z,10.45
2022-10-13T07:51:12.628Z,8.57
2022-10-13T07:53:41.418Z,10.75
2022-10-13T07:56:11.528Z,8.15
2022-10-13T08:01:07.629Z,21.05
2022-10-13T08:06:08.409Z,8.20
2022-10-13T08:08:36.021Z,6.07
2022-10-13T08:11:07.252Z,9.18
2022-10-13T08:13:35.588Z,8.80
2022-10-13T08:16:03.072Z,8.45
2022-10-13T08:18:30.616Z,9.50
2022-10-13T08:21:33.154Z,10.15
2022-10-13T08:23:50.969Z,9.15
2022-10-13T08:26:23.456Z,3.90
2022-10-13T08:29:09.544Z,9.65
2022-10-13T08:31:37.753Z,2.40
2022-10-13T08:34:05.097Z,5.63
2022-10-13T08:36:32.084Z,6.88
2022-10-13T08:38:59.047Z,8.05
2022-10-13T08:41:31.278Z,9.30
2022-10-13T08:47:10.732Z,8.65
2022-10-13T08:49:40.311Z,8.25
2022-10-13T08:52:18.464Z,4.47
2022-10-13T08:54:45.859Z,8.40
2022-10-13T08:57:12.900Z,7.45
2022-10-13T08:59:40.041Z,10.55
2022-10-13T09:02:31.268Z,9.75
2022-10-13T09:05:03.449Z,9.38
2022-10-13T09:07:37.103Z,8.05
2022-10-13T09:10:04.746Z,8.05
2022-10-13T09:12:33.916Z,7.13
2022-10-13T09:15:05.356Z,7.55
2022-10-13T09:17:34.512Z,6.57
2022-10-13T09:20:25.368Z,9.00
2022-10-13T09:23:03.397Z,7.50
2022-10-13T09:25:40.191Z,6.35
2022-10-13T09:28:16.937Z,6.07
2022-10-13T09:30:48.811Z,6.93
2022-10-13T09:33:20.836Z,2.97
2022-10-13T09:36:15.794Z,5.28
2022-10-13T09:39:05.242Z,6.40
2022-10-13T09:41:34.778Z,8.52
2022-10-13T09:44:10.410Z,6.75
2022-10-13T09:46:49.016Z,9.20
2022-10-13T09:49:37.420Z,7.65
2022-10-13T09:52:19.404Z,6.28
2022-10-13T09:54:54.183Z,7.75
2022-10-13T09:57:21.839Z,8.00
2022-10-13T10:00:06.866Z,8.80
2022-10-13T10:02:38.688Z,8.90
2022-10-13T10:05:18.358Z,2.47
2022-10-13T10:07:45.463Z,10.75
2022-10-13T10:10:30.595Z,8.52
2022-10-13T10:12:58.158Z,9.55
2022-10-13T10:15:33.699Z,7.80
2022-10-13T10:18:07.591Z,9.18
2022-10-13T10:20:54.296Z,7.57
2022-10-13T10:23:40.056Z,9.80
2022-10-13T10:26:20.715Z,8.23
2022-10-13T10:29:15.541Z,9.13
2022-10-13T10:31:58.079Z,4.20
2022-10-13T10:34:32.725Z,8.63
2022-10-13T10:37:21.371Z,7.47
2022-10-13T10:40:16.386Z,9.02
2022-10-13T10:43:01.553Z,5.32
2022-10-13T10:45:34.034Z,6.22
2022-10-13T10:48:08.009Z,8.55
2022-10-13T10:50:35.627Z,7.82
2022-10-13T10:53:07.269Z,6.68
2022-10-13T10:56:00.653Z,8.43
2022-10-13T10:58:47.674Z,9.40
2022-10-13T11:01:30.834Z,7.78
2022-10-13T11:04:09.673Z,8.05
2022-10-13T11:06:37.999Z,8.02
2022-10-13T11:09:06.157Z,7.53
2022-10-13T11:11:37.730Z,5.05
2022-10-13T11:14:04.724Z,8.15
2022-10-13T11:16:35.739Z,5.63
2022-10-13T11:19:05.898Z,5.50
2022-10-13T11:21:53.108Z,5.72
2022-10-13T11:25:12.509Z,6.85
2022-10-13T11:27:41.574Z,7.80
2022-10-13T11:30:42.133Z,5.75
2022-10-13T11:33:32.096Z,7.82
2022-10-13T11:36:39.481Z,4.35
2022-10-13T11:42:09.024Z,5.90
2022-10-13T11:44:57.953Z,6.00
2022-10-13T11:47:55.843Z,6.45
2022-10-13T11:50:34.408Z,5.53
2022-10-13T11:53:17.211Z,5.82
2022-10-13T11:55:55.411Z,7.00
2022-10-13T11:58:28.207Z,6.75
2022-10-13T12:00:59.779Z,5.85
2022-10-13T12:03:38.757Z,7.10
2022-10-13T12:06:32.161Z,5.68
2022-10-13T12:09:06.040Z,5.05
2022-10-13T12:11:36.215Z,4.03
2022-10-13T12:14:19.359Z,6.65
2022-10-13T12:16:57.700Z,6.65
2022-10-13T12:19:27.525Z,6.03
2022-10-13T12:21:56.964Z,7.15
2022-10-13T12:24:25.896Z,6.00
2022-10-13T12:26:53.296Z,2.88
2022-10-13T12:29:25.611Z,5.38
2022-10-13T12:31:52.930Z,5.55
2022-10-13T12:34:21.484Z,4.78
2022-10-13T12:37:00.487Z,5.68
2022-10-13T12:39:29.350Z,4.85
2022-10-13T12:41:57.885Z,6.47
2022-10-13T12:44:27.868Z,4.25
2022-10-13T12:46:59.046Z,4.03
2022-10-13T12:49:31.551Z,3.13
2022-10-13T12:52:11.309Z,6.43
2022-10-13T12:54:40.488Z,5.38
2022-10-13T12:57:38.334Z,5.28
2022-10-13T13:00:21.178Z,6.30
2022-10-13T13:02:57.443Z,5.40
2022-10-13T13:05:39.329Z,5.00
2022-10-13T13:08:23.398Z,4.80
2022-10-13T13:11:01.858Z,6.68
2022-10-13T13:13:29.896Z,5.20
2022-10-13T13:16:16.828Z,5.05
2022-10-13T13:18:45.908Z,4.43
2022-10-13T13:21:15.379Z,5.88
2022-10-13T13:23:49.560Z,5.10
2022-10-13T13:26:22.545Z,4.70
2022-10-13T13:28:54.658Z,4.47
2022-10-13T13:31:24.319Z,5.40
2022-10-13T13:33:51.281Z,4.78
2022-10-13T13:36:25.084Z,5.65
2022-10-13T13:38:53.674Z,4.60
2022-10-13T13:41:21.315Z,5.63
2022-10-13T13:43:49.939Z,6.97
2022-10-13T13:46:18.139Z,6.20
2022-10-13T13:48:45.186Z,8.88
2022-10-13T13:51:12.100Z,8.48
2022-10-13T13:53:39.050Z,4.40
2022-10-13T13:56:06.199Z,4.53
2022-10-13T13:58:33.244Z,10.82
2022-10-13T14:01:00.170Z,4.28
2022-10-13T14:03:27.731Z,6.18
2022-10-13T14:05:54.610Z,3.65
2022-10-13T14:08:21.525Z,3.50
2022-10-13T14:10:48.354Z,3.15
2022-10-13T14:13:15.377Z,3.58
2022-10-13T14:15:42.228Z,3.80
2022-10-13T14:18:09.032Z,3.88
2022-10-13T14:20:35.879Z,4.03
2022-10-13T14:23:02.812Z,4.90
2022-10-13T14:25:29.724Z,3.72
2022-10-13T14:27:56.623Z,3.75
2022-10-13T14:30:23.781Z,3.88
2022-10-13T14:32:51.166Z,3.78
2022-10-13T14:35:18.065Z,3.60
2022-10-13T14:37:44.911Z,4.00
2022-10-13T14:40:11.692Z,4.10
2022-10-13T14:42:39.691Z,3.08
2022-10-13T14:45:07.154Z,3.50
2022-10-13T14:47:34.199Z,4.22
2022-10-13T14:50:03.809Z,4.03
2022-10-13T14:52:30.732Z,6.85
2022-10-13T14:54:57.469Z,4.35
2022-10-13T14:57:25.118Z,3.95
2022-10-13T14:59:52.161Z,3.90
2022-10-13T15:02:22.156Z,4.35
2022-10-13T15:04:49.021Z,3.80
2022-10-13T15:07:15.777Z,3.90
2022-10-13T15:10:00.480Z,4.07
2022-10-13T15:12:29.654Z,3.90
2022-10-13T15:14:56.407Z,6.90
2022-10-13T15:17:23.339Z,24.40
2022-10-13T15:19:50.294Z,19.50
2022-10-13T15:22:17.080Z,24.33
2022-10-13T15:24:43.875Z,6.10
2022-10-13T15:27:10.652Z,11.60
2022-10-13T15:29:37.447Z,6.18
2022-10-13T15:32:09.810Z,6.55
2022-10-13T15:34:39.802Z,3.33
2022-10-13T15:37:07.140Z,4.85
2022-10-13T15:39:34.554Z,3.55
2022-10-13T15:42:01.457Z,4.32
2022-10-13T15:44:30.859Z,3.13
2022-10-13T15:47:11.573Z,3.05
2022-10-13T15:49:40.576Z,5.18
2022-10-13T15:52:07.581Z,4.97
2022-10-13T15:54:35.776Z,5.38
2022-10-13T15:57:02.680Z,5.25
2022-10-13T15:59:29.628Z,6.43
2022-10-13T16:01:56.431Z,4.30
2022-10-13T16:04:24.186Z,5.18
2022-10-13T16:06:51.190Z,6.70
2022-10-13T16:09:18.309Z,5.90
2022-10-13T16:11:45.302Z,7.15
2022-10-13T16:14:12.460Z,5.40
2022-10-13T16:16:41.313Z,5.70
2022-10-13T16:19:08.570Z,5.85
2022-10-13T16:21:35.722Z,6.10
2022-10-13T16:24:03.016Z,5.25
2022-10-13T16:26:29.872Z,5.22
2022-10-13T16:28:58.099Z,6.30
2022-10-13T16:31:25.250Z,6.60
2022-10-13T16:33:52.128Z,5.68
2022-10-13T16:36:20.993Z,7.18
2022-10-13T16:38:48.099Z,6.30
2022-10-13T16:41:18.171Z,7.28
2022-10-13T16:43:47.200Z,5.00
2022-10-13T16:46:16.793Z,6.10
2022-10-13T16:48:44.779Z,6.03
2022-10-13T16:51:17.341Z,6.10
2022-10-13T16:53:48.831Z,7.35
2022-10-13T16:56:16.500Z,6.32
2022-10-13T16:58:45.210Z,5.90
2022-10-13T17:01:13.488Z,6.65
2022-10-13T17:03:42.979Z,5.32
2022-10-13T17:06:11.277Z,5.85
2022-10-13T17:08:38.264Z,6.28
2022-10-13T17:11:06.115Z,5.63
2022-10-13T17:13:33.973Z,6.57
2022-10-13T17:16:02.028Z,5.55
2022-10-13T17:18:29.540Z,6.55
2022-10-13T17:20:58.733Z,7.90
2022-10-13T17:23:27.946Z,5.47
2022-10-13T17:25:55.802Z,5.85
2022-10-13T17:28:23.478Z,6.35
2022-10-13T17:31:20.750Z,7.22
2022-10-13T17:33:49.572Z,7.38
2022-10-13T17:36:20.815Z,5.85
2022-10-13T17:38:49.376Z,3.63
2022-10-13T17:41:17.654Z,5.78
2022-10-13T17:43:44.711Z,6.20
2022-10-13T17:46:35.519Z,5.57
2022-10-13T17:49:02.026Z,6.25
2022-10-13T17:51:29.260Z,7.10
2022-10-13T17:54:00.658Z,6.03
2022-10-13T17:56:29.224Z,7.30
2022-10-13T17:58:56.970Z,8.15
2022-10-13T18:01:29.746Z,7.05
2022-10-13T18:04:00.522Z,7.25
2022-10-13T18:06:36.749Z,7.35
2022-10-13T18:09:06.369Z,7.32
2022-10-13T18:11:33.822Z,7.43
2022-10-13T18:14:00.672Z,8.27
2022-10-13T18:16:27.711Z,5.95
2022-10-13T18:18:55.658Z,7.97
2022-10-13T18:21:26.235Z,6.90
2022-10-13T18:23:58.166Z,6.78
2022-10-13T18:26:26.618Z,5.43
2022-10-13T18:28:53.647Z,5.75
2022-10-13T18:31:23.373Z,6.25
2022-10-13T18:33:50.845Z,6.13
2022-10-13T18:36:26.804Z,5.13
2022-10-13T18:38:55.395Z,7.03
2022-10-13T18:41:24.593Z,6.35
2022-10-13T18:43:51.728Z,6.80
2022-10-13T18:46:19.138Z,7.78
2022-10-13T18:48:46.028Z,6.72
2022-10-13T18:51:15.193Z,6.95
2022-10-13T18:53:44.785Z,7.75
2022-10-13T18:56:20.775Z,5.38
2022-10-13T18:58:49.420Z,5.13
2022-10-13T19:01:18.878Z,7.55
2022-10-13T19:03:47.103Z,6.53
2022-10-13T19:06:15.971Z,6.78
2022-10-13T19:08:46.644Z,7.43
2022-10-13T19:11:20.202Z,6.32
2022-10-13T19:13:48.354Z,5.90
2022-10-13T19:16:18.111Z,7.25
2022-10-13T19:18:45.407Z,7.30
2022-10-13T19:21:12.572Z,5.72
2022-10-13T19:23:40.300Z,6.65
2022-10-13T19:26:15.080Z,7.03
2022-10-13T19:28:43.072Z,8.00
2022-10-13T19:31:18.405Z,6.82
2022-10-13T19:33:47.194Z,7.88
2022-10-13T19:36:25.915Z,6.72
2022-10-13T19:38:54.578Z,7.07
2022-10-13T19:41:21.547Z,5.75
2022-10-13T19:43:48.986Z,6.22
2022-10-13T19:46:17.067Z,5.90
2022-10-13T19:48:44.843Z,5.45
2022-10-13T19:51:12.933Z,7.55
2022-10-13T19:53:40.483Z,6.47
2022-10-13T19:56:07.831Z,6.55
2022-10-13T19:58:35.554Z,6.30
2022-10-13T20:01:05.219Z,6.38
2022-10-13T20:03:32.444Z,6.68
2022-10-13T20:06:05.039Z,6.32
2022-10-13T20:08:32.366Z,7.22
2022-10-13T20:11:00.707Z,5.55
2022-10-13T20:13:27.607Z,5.80
2022-10-13T20:15:54.387Z,6.32
2022-10-13T20:18:21.872Z,4.78
2022-10-13T20:20:48.688Z,6.35
2022-10-13T20:23:15.601Z,5.53
2022-10-13T20:25:42.901Z,5.70
2022-10-13T20:28:09.761Z,5.90
2022-10-13T20:30:39.711Z,6.40
2022-10-13T20:33:06.828Z,5.93
2022-10-13T20:35:33.680Z,5.63
2022-10-13T20:38:00.459Z,5.65
2022-10-13T20:40:27.501Z,7.45
2022-10-13T20:42:54.291Z,5.60
2022-10-13T20:45:21.262Z,6.05
2022-10-13T20:47:49.430Z,6.03
2022-10-13T20:50:16.220Z,4.00
2022-10-13T20:52:43.096Z,3.78
2022-10-13T20:55:10.157Z,5.93
2022-10-13T20:57:36.973Z,5.93
2022-10-13T21:00:05.834Z,5.53
2022-10-13T21:02:33.017Z,4.38
2022-10-13T21:04:59.808Z,6.65
2022-10-13T21:07:28.443Z,4.30
2022-10-13T21:09:55.269Z,5.18
2022-10-13T21:12:22.100Z,6.35
2022-10-13T21:14:49.054Z,4.05
2022-10-13T21:17:16.462Z,5.45
2022-10-13T21:19:43.273Z,7.07
2022-10-13T21:22:11.202Z,6.70
2022-10-13T21:24:38.048Z,5.72
2022-10-13T21:27:05.530Z,6.05
2022-10-13T21:29:32.346Z,4.10
2022-10-13T21:31:59.236Z,4.70
2022-10-13T21:34:26.037Z,5.43
2022-10-13T21:36:52.986Z,6.40
2022-10-13T21:39:19.856Z,5.13
2022-10-13T21:41:47.015Z,5.82
2022-10-13T21:44:14.824Z,5.28
2022-10-13T21:46:41.858Z,5.85
2022-10-13T21:49:10.126Z,7.88
2022-10-13T21:51:38.691Z,6.70
2022-10-13T21:54:11.603Z,5.35
2022-10-13T21:56:39.671Z,4.93
2022-10-13T21:59:07.400Z,6.80
2022-10-13T22:01:34.671Z,6.78
2022-10-13T22:04:02.612Z,5.68
2022-10-13T22:06:31.959Z,7.68
2022-10-13T22:09:00.936Z,6.50
2022-10-13T22:11:30.597Z,7.05
2022-10-13T22:13:58.127Z,5.55
2022-10-13T22:16:27.997Z,6.20
2022-10-13T22:18:57.182Z,6.90
2022-10-13T22:21:30.908Z,6.88
2022-10-13T22:24:04.908Z,7.10
2022-10-13T22:26:34.943Z,7.50
2022-10-13T22:29:03.270Z,6.07
2022-10-13T22:31:32.639Z,6.65
2022-10-13T22:34:00.543Z,6.63
2022-10-13T22:36:29.455Z,8.00
2022-10-13T22:38:58.483Z,6.60
2022-10-13T22:43:57.596Z,5.35
2022-10-13T22:46:31.065Z,6.10
2022-10-13T22:48:59.753Z,7.40
2022-10-13T22:51:28.509Z,7.13
2022-10-13T22:53:56.957Z,7.50
2022-10-13T22:56:29.645Z,5.82
2022-10-13T22:58:59.112Z,6.88
2022-10-13T23:01:26.828Z,7.70
2022-10-13T23:03:56.670Z,7.32
2022-10-13T23:06:26.247Z,7.18
2022-10-13T23:08:53.162Z,7.63
2022-10-13T23:11:21.717Z,6.78
2022-10-13T23:13:49.136Z,8.32
2022-10-13T23:16:19.174Z,7.90
2022-10-13T23:21:15.917Z,7.68
2022-10-13T23:23:43.481Z,6.28
2022-10-13T23:26:13.393Z,6.75
2022-10-13T23:28:41.284Z,8.15
2022-10-13T23:31:12.941Z,7.10
2022-10-13T23:33:40.437Z,9.25
2022-10-13T23:36:08.392Z,7.15
2022-10-13T23:38:35.371Z,6.15
2022-10-13T23:41:07.448Z,8.68
2022-10-13T23:43:34.424Z,7.22
2022-10-13T23:46:02.063Z,6.85
2022-10-13T23:48:29.757Z,7.13
2022-10-13T23:50:56.838Z,6.45
2022-10-13T23:53:24.789Z,6.97
2022-10-13T23:55:51.717Z,7.22
2022-10-13T23:58:18.533Z,8.60
